Terminal Aerodrome Forecast
Issued by NWS Omaha/Valley, NE

Home | Current Version | Previous Version | Graphics & Text | Print | Product List | Glossary On
Versions: 1 2 3 4 5 6 7 8 9 10 11 12 13 14 15 16 17 18 19
000
FTUS43 KOAX 241006 AAC
TAFOFK
TAF AMD
KOFK 241006Z 2410/2506 16010KT P6SM VCTS FEW040CB BKN080
      TEMPO 2411/2413 VRB10G20KT 5SM TSRA SCT020 BKN040CB
     FM241300 19010KT P6SM SCT020 BKN070
      TEMPO 2413/2415 BKN020
     FM241600 18013G21KT P6SM BKN050 PROB30 2422/2501 4SM TSRA
      BKN040CB
     FM250100 18012KT P6SM SCT040 BKN250=

USA.gov is the U.S. government's official web portal to all federal, state and local government web resources and services.